Time;durP1;ratioP1;P1;durP2;ratioP2;P2;SDS_P1;SDS_P2;PMS_P1;PMS_P2;Temp;Humidity;BMP_temperature;BMP_pressure;BME280_temperature;BME280_humidity;BME280_pressure;Samples;Min_cycle;Max_cycle;Signal;HPM_P1;HPM_P2
2021/12/13 00:02:21;;;;;;;;;24.40;21.20;;;;;10.57;80.70;102083.19;4997979;28;45789;-56
2021/12/13 00:04:49;;;;;;;;;18.60;18.20;;;;;10.25;80.00;102013.66;5015093;28;45420;-62
2021/12/13 00:07:22;;;;;;;;;24.20;20.20;;;;;10.62;80.49;102072.50;4980319;28;45423;-56
2021/12/13 00:09:49;;;;;;;;;19.00;18.00;;;;;10.62;80.03;102069.75;4989304;28;45769;-53
2021/12/13 00:12:23;;;;;;;;;19.80;19.80;;;;;10.60;80.29;102066.34;4996867;28;45379;-57
2021/12/13 00:14:50;;;;;;;;;25.80;21.60;;;;;10.60;80.39;102060.88;5015156;28;45402;-56
2021/12/13 00:17:21;;;;;;;;;24.40;18.80;;;;;10.60;80.37;102063.59;4997328;28;45495;-56
2021/12/13 00:19:50;;;;;;;;;16.20;14.80;;;;;10.41;80.39;102027.28;4981108;28;45650;-57
2021/12/13 00:22:19;;;;;;;;;17.60;15.40;;;;;10.58;80.42;102061.03;4981051;28;46239;-55
2021/12/13 00:24:45;;;;;;;;;17.80;16.00;;;;;10.42;79.98;102025.41;4997597;28;45368;-54
2021/12/13 00:27:16;;;;;;;;;23.20;16.60;;;;;10.58;80.11;102046.47;4980945;28;45369;-57
2021/12/13 00:29:59;;;;;;;;;27.00;23.00;;;;;10.60;79.76;102052.63;4997436;28;45363;-59
2021/12/13 00:32:46;;;;;;;;;25.60;18.80;;;;;10.57;80.62;102048.34;4997391;28;45639;-60
2021/12/13 00:35:14;;;;;;;;;18.80;18.80;;;;;10.53;80.10;102032.41;5014588;28;45410;-57
2021/12/13 00:37:41;;;;;;;;;22.00;17.80;;;;;10.58;80.47;102049.22;4997288;28;45278;-52
2021/12/13 00:40:19;;;;;;;;;10.60;10.60;;;;;10.56;80.58;102045.78;4997840;28;45269;-55
2021/12/13 00:43:06;;;;;;;;;23.00;20.60;;;;;10.57;80.34;102042.03;5014664;28;46242;-59
2021/12/13 00:45:32;;;;;;;;;22.20;19.20;;;;;10.56;80.69;102040.28;5014502;28;45390;-56
2021/12/13 00:48:01;;;;;;;;;20.40;19.60;;;;;10.52;80.79;102034.31;5014900;28;45301;-55
2021/12/13 00:51:28;;;;;;;;;23.80;16.20;;;;;10.51;79.94;102040.00;5015010;28;45529;-56
2021/12/13 00:53:56;;;;;;;;;20.00;15.00;;;;;10.46;80.96;102032.28;4949683;28;45723;-56
2021/12/13 00:56:52;;;;;;;;;19.80;18.00;;;;;10.47;80.28;102042.25;4980504;28;45518;-57
2021/12/13 00:59:27;;;;;;;;;20.00;15.40;;;;;10.49;80.49;102048.41;4996889;28;45435;-56
2021/12/13 01:02:00;;;;;;;;;15.60;14.40;;;;;10.51;80.81;102043.56;5014665;28;45398;-56
2021/12/13 01:05:04;;;;;;;;;19.80;15.80;;;;;10.50;79.92;102051.97;4997239;28;46966;-56
2021/12/13 01:07:33;;;;;;;;;20.00;15.80;;;;;10.52;79.92;102048.03;5018529;28;45466;-54
2021/12/13 01:10:18;;;;;;;;;18.80;15.40;;;;;10.54;79.97;102050.59;5021001;28;45378;-55
2021/12/13 01:12:45;;;;;;;;;21.60;17.40;;;;;10.53;80.22;102047.00;5021325;28;45288;-57
2021/12/13 01:15:30;;;;;;;;;25.00;17.60;;;;;10.51;80.02;102050.97;4974841;28;46733;-55
2021/12/13 01:18:16;;;;;;;;;20.00;18.80;;;;;10.52;80.19;102047.19;4987026;28;45353;-58
2021/12/13 01:21:03;;;;;;;;;21.80;18.40;;;;;10.51;81.00;102049.06;4991969;28;45398;-56
2021/12/13 01:23:46;;;;;;;;;18.80;15.80;;;;;10.31;80.79;102011.03;5004196;28;45486;-55
2021/12/13 01:28:50;;;;;;;;;23.40;17.20;;;;;10.49;80.52;102028.31;5004281;28;45475;-56
2021/12/13 01:31:22;;;;;;;;;21.20;16.20;;;;;10.54;80.43;102042.38;5003726;28;45476;-55
2021/12/13 01:33:47;;;;;;;;;22.20;18.20;;;;;10.52;80.25;102045.28;5003082;28;45382;-55
2021/12/13 01:36:26;;;;;;;;;15.25;12.00;;;;;10.52;80.39;102039.78;5020322;28;46237;-55
2021/12/13 01:38:57;;;;;;;;;24.80;21.60;;;;;10.53;80.45;102044.28;5020619;28;45560;-53
2021/12/13 01:41:32;;;;;;;;;22.00;17.20;;;;;10.54;80.44;102045.97;5021141;28;45449;-60
2021/12/13 01:44:11;;;;;;;;;21.80;15.40;;;;;10.54;79.92;102045.09;5019395;28;45949;-58
2021/12/13 01:46:52;;;;;;;;;20.80;16.20;;;;;10.52;80.40;102044.44;4986265;28;48349;-56
2021/12/13 01:49:19;;;;;;;;;24.60;19.20;;;;;10.57;79.99;102055.75;5020609;28;45244;-53
2021/12/13 01:51:45;;;;;;;;;23.00;20.20;;;;;10.57;79.98;102055.75;5003272;28;45462;-55
2021/12/13 01:54:14;;;;;;;;;19.00;14.75;;;;;10.58;80.36;102049.22;5020861;28;45971;-57
2021/12/13 01:57:28;;;;;;;;;24.60;19.60;;;;;10.54;80.04;102051.47;5002422;28;46297;-50
2021/12/13 01:59:54;;;;;;;;;18.40;14.80;;;;;10.54;80.38;102051.47;5019652;28;45513;-56
2021/12/13 02:02:24;;;;;;;;;17.80;17.40;;;;;10.54;80.56;102051.47;5004539;28;45702;-57
2021/12/13 02:04:59;;;;;;;;;19.40;16.40;;;;;10.37;80.64;102020.47;5021259;28;45435;-56
2021/12/13 02:07:26;;;;;;;;;19.80;17.00;;;;;10.58;80.27;102046.47;5020427;28;45652;-52
2021/12/13 02:09:52;;;;;;;;;17.60;17.00;;;;;10.55;80.60;102050.44;5020332;28;45481;-57
2021/12/13 02:12:18;;;;;;;;;21.75;14.50;;;;;10.53;80.43;102044.28;5002607;28;45474;-58
2021/12/13 02:16:56;;;;;;;;;21.80;19.80;;;;;10.54;80.44;102053.34;5020438;28;45596;-61
2021/12/13 02:17:38;;;;;;;;;21.00;18.00;;;;;10.55;80.92;102050.44;5019990;28;45465;-53
2021/12/13 02:20:11;;;;;;;;;24.40;19.60;;;;;10.54;79.83;102051.47;5016698;28;45450;-51
2021/12/13 02:22:47;;;;;;;;;23.40;21.20;;;;;10.57;80.44;102058.50;4999801;28;45450;-58
2021/12/13 02:25:25;;;;;;;;;21.00;16.40;;;;;10.54;80.57;102064.31;5016987;28;45595;-56
2021/12/13 02:28:12;;;;;;;;;27.40;25.00;;;;;10.32;80.44;102033.88;5017111;28;45503;-54
2021/12/13 02:30:50;;;;;;;;;21.80;20.00;;;;;10.33;80.54;102034.72;4999565;28;45510;-56
2021/12/13 02:33:18;;;;;;;;;25.80;20.20;;;;;10.46;81.00;102062.47;5017000;28;45549;-51
2021/12/13 02:35:48;;;;;;;;;24.40;19.60;;;;;10.49;80.77;102066.75;4999593;28;45907;-57
2021/12/13 02:38:13;;;;;;;;;26.20;20.40;;;;;10.29;80.16;102032.34;4998861;28;45438;-59
2021/12/13 02:40:39;;;;;;;;;20.40;19.60;;;;;10.43;80.58;102040.88;4998903;28;45359;-56
2021/12/13 02:43:06;;;;;;;;;23.00;18.25;;;;;10.50;80.26;102054.72;5017026;28;45407;-59
2021/12/13 02:45:42;;;;;;;;;26.00;20.80;;;;;10.47;80.13;102055.09;5016850;28;45394;-54
2021/12/13 02:48:31;;;;;;;;;21.60;19.00;;;;;10.49;81.10;102047.53;5016675;28;46714;-55
2021/12/13 02:51:01;;;;;;;;;30.40;24.80;;;;;10.41;80.62;102054.75;5016604;28;45521;-56
2021/12/13 02:53:31;;;;;;;;;25.80;23.40;;;;;10.48;80.65;102060.41;5016577;28;45414;-58
2021/12/13 02:55:56;;;;;;;;;28.80;20.80;;;;;10.37;80.41;102042.44;4999388;28;45317;-54
2021/12/13 02:58:23;;;;;;;;;24.00;17.50;;;;;10.47;80.29;102046.88;4998731;28;46202;-58
2021/12/13 03:00:54;;;;;;;;;23.60;19.60;;;;;10.48;81.39;102049.44;4985190;28;45518;-57
2021/12/13 03:03:22;;;;;;;;;27.80;24.00;;;;;10.30;80.49;102019.47;5013746;28;45417;-53
2021/12/13 03:05:49;;;;;;;;;24.00;20.60;;;;;10.49;80.72;102047.53;5007517;28;45323;-54
2021/12/13 03:08:21;;;;;;;;;25.80;19.60;;;;;10.33;80.52;102024.59;5016662;28;46610;-54
2021/12/13 03:10:49;;;;;;;;;27.60;21.60;;;;;10.49;80.64;102051.16;5016394;28;45276;-57
2021/12/13 03:13:17;;;;;;;;;20.20;19.40;;;;;10.49;80.37;102059.38;5016730;28;45358;-55
2021/12/13 03:15:46;;;;;;;;;18.00;14.80;;;;;10.26;80.42;102013.47;5015092;28;45512;-56
2021/12/13 03:18:24;;;;;;;;;27.20;21.80;;;;;10.47;80.86;102044.13;5014644;28;46354;-58
2021/12/13 03:20:50;;;;;;;;;24.60;20.20;;;;;10.51;80.39;102049.06;5016175;28;45406;-52
2021/12/13 03:23:35;;;;;;;;;28.25;23.50;;;;;10.46;79.95;102040.50;5016504;28;45401;-57
2021/12/13 03:26:27;;;;;;;;;27.60;20.00;;;;;10.50;79.83;102046.50;5016644;28;45539;-53
2021/12/13 03:29:06;;;;;;;;;25.80;21.40;;;;;10.34;80.75;102022.72;4991516;28;46756;-59
2021/12/13 03:31:41;;;;;;;;;21.40;16.00;;;;;10.43;80.51;102032.66;5014950;28;45683;-57
2021/12/13 03:34:19;;;;;;;;;26.00;20.80;;;;;10.47;80.21;102036.75;5031697;28;45845;-57
2021/12/13 03:37:02;;;;;;;;;21.40;18.60;;;;;10.43;80.88;102040.88;5030894;28;45512;-55
2021/12/13 03:39:32;;;;;;;;;24.20;18.20;;;;;10.42;80.91;102031.78;5016297;28;46091;-54
2021/12/13 03:41:58;;;;;;;;;21.20;19.40;;;;;10.45;80.54;102030.56;5031109;28;45378;-58
2021/12/13 03:44:31;;;;;;;;;17.80;17.60;;;;;9.94;80.20;101949.50;4998429;28;45434;-54
2021/12/13 03:47:06;;;;;;;;;26.40;20.60;;;;;10.42;79.84;102033.66;5016088;28;45367;-58
2021/12/13 03:49:32;;;;;;;;;23.80;19.00;;;;;10.39;80.72;102034.84;5015633;28;45334;-55
2021/12/13 03:51:58;;;;;;;;;21.00;18.00;;;;;10.30;80.48;102012.09;4997536;28;46541;-53
2021/12/13 03:54:25;;;;;;;;;24.75;21.25;;;;;10.31;80.38;102019.28;5015892;28;45820;-56
2021/12/13 03:56:50;;;;;;;;;27.20;17.40;;;;;10.33;80.33;102019.09;5015671;28;45514;-57
2021/12/13 03:59:19;;;;;;;;;23.00;18.75;;;;;10.25;80.18;102006.28;4997928;28;46610;-56
2021/12/13 04:01:50;;;;;;;;;20.60;18.20;;;;;10.33;80.45;102012.75;5014912;28;45379;-51
2021/12/13 04:04:21;;;;;;;;;25.80;18.00;;;;;10.30;80.72;102017.56;4981821;28;45472;-57
2021/12/13 04:06:52;;;;;;;;;22.20;19.80;;;;;10.31;80.19;102021.19;4990089;28;45306;-57
2021/12/13 04:09:18;;;;;;;;;24.20;20.80;;;;;10.17;80.63;101992.59;4997855;28;46382;-58
2021/12/13 04:11:44;;;;;;;;;18.75;15.75;;;;;10.24;80.46;102001.81;4980939;28;45371;-56
2021/12/13 04:14:16;;;;;;;;;17.80;17.80;;;;;10.35;79.68;102019.78;5015528;28;45391;-55
2021/12/13 04:17:05;;;;;;;;;17.20;15.20;;;;;10.29;79.69;102012.25;4983193;28;45389;-60
2021/12/13 04:19:54;;;;;;;;;29.00;22.80;;;;;10.33;80.26;102020.97;4997274;28;46759;-52
2021/12/13 04:22:22;;;;;;;;;21.40;19.40;;;;;10.35;80.10;102021.69;4997171;28;45481;-52
2021/12/13 04:24:52;;;;;;;;;24.40;15.80;;;;;10.33;80.26;102021.84;5015265;28;45275;-50
2021/12/13 04:27:43;;;;;;;;;22.40;18.80;;;;;10.28;79.45;102010.56;4997648;28;45453;-57
2021/12/13 04:30:22;;;;;;;;;17.80;15.20;;;;;10.34;79.59;102025.47;5014459;28;46030;-56
2021/12/13 04:32:50;;;;;;;;;19.80;14.80;;;;;10.16;79.53;101994.47;5015143;28;45313;-56
2021/12/13 04:35:16;;;;;;;;;19.00;17.00;;;;;10.27;79.51;102025.31;4996811;28;45354;-57
2021/12/13 04:37:45;;;;;;;;;18.00;16.50;;;;;10.04;80.23;101990.44;4997690;28;45460;-55
2021/12/13 04:40:14;;;;;;;;;19.80;17.20;;;;;10.27;79.76;102031.66;5014817;28;46452;-55
2021/12/13 04:42:40;;;;;;;;;20.00;14.00;;;;;10.27;80.10;102031.66;5014474;28;45359;-56
2021/12/13 04:45:06;;;;;;;;;23.00;15.80;;;;;10.25;80.15;102030.97;5014991;28;45411;-57
2021/12/13 04:47:33;;;;;;;;;14.75;13.50;;;;;10.22;80.18;102022.25;5014878;28;45566;-53
2021/12/13 04:50:13;;;;;;;;;19.40;16.00;;;;;10.15;80.35;102022.94;5013293;28;47032;-53
2021/12/13 04:52:39;;;;;;;;;21.40;16.40;;;;;10.03;80.28;102014.25;5015052;28;45391;-54
2021/12/13 04:55:08;;;;;;;;;18.50;15.75;;;;;9.87;80.54;101984.16;4996946;28;45393;-51
2021/12/13 04:57:34;;;;;;;;;18.00;13.60;;;;;10.22;79.73;102036.81;4996930;28;45376;-56
2021/12/13 05:00:00;;;;;;;;;20.75;16.75;;;;;10.27;79.39;102041.78;5014678;28;46271;-50
2021/12/13 05:02:26;;;;;;;;;19.20;15.40;;;;;10.10;79.67;102019.91;5013111;28;45397;-53
2021/12/13 05:04:54;;;;;;;;;14.60;13.20;;;;;10.22;79.37;102038.69;5014846;28;45331;-59
2021/12/13 05:07:19;;;;;;;;;16.20;14.80;;;;;10.24;79.28;102042.97;5014679;28;45478;-57
2021/12/13 05:09:47;;;;;;;;;13.50;12.25;;;;;10.26;80.34;102040.06;4996740;28;46694;-51
2021/12/13 05:12:15;;;;;;;;;18.20;15.60;;;;;9.79;79.96;101974.06;5013396;28;46051;-53
2021/12/13 05:14:53;;;;;;;;;19.40;17.60;;;;;9.86;79.73;101979.69;4997410;28;45308;-51
2021/12/13 05:17:27;;;;;;;;;18.20;13.00;;;;;10.24;79.88;102042.97;5013430;28;45522;-56
2021/12/13 05:20:08;;;;;;;;;12.80;11.60;;;;;10.25;79.42;102038.38;5014586;28;46759;-52
2021/12/13 05:22:40;;;;;;;;;16.20;13.40;;;;;10.21;79.55;102039.75;5014087;28;45431;-53
2021/12/13 05:25:06;;;;;;;;;13.60;12.80;;;;;10.23;79.83;102044.03;4996768;28;45511;-56
2021/12/13 05:27:37;;;;;;;;;14.40;14.40;;;;;10.17;79.19;102041.97;5014414;28;45536;-53
2021/12/13 05:30:08;;;;;;;;;22.40;16.60;;;;;10.19;78.95;102059.13;4996694;28;48042;-56
2021/12/13 05:32:36;;;;;;;;;17.20;12.40;;;;;10.18;79.67;102054.66;4995944;28;45403;-56
2021/12/13 05:35:08;;;;;;;;;20.60;13.80;;;;;10.18;79.65;102049.19;4996860;28;45293;-53
2021/12/13 05:37:54;;;;;;;;;14.40;12.40;;;;;10.13;79.67;102046.97;5013120;28;45546;-56
2021/12/13 05:40:42;;;;;;;;;19.40;14.80;;;;;10.17;78.79;102047.47;5012721;28;47419;-55
2021/12/13 05:43:24;;;;;;;;;16.60;12.20;;;;;10.12;79.27;102049.88;5013690;28;45435;-55
2021/12/13 05:46:03;;;;;;;;;13.60;12.80;;;;;9.89;79.13;102015.84;4997315;28;45403;-57
2021/12/13 05:48:34;;;;;;;;;17.80;14.60;;;;;10.08;78.80;102049.38;4998275;28;45404;-55
2021/12/13 05:51:02;;;;;;;;;12.60;11.60;;;;;10.08;79.41;102046.63;5014137;28;45936;-63
2021/12/13 05:53:37;;;;;;;;;17.60;13.80;;;;;10.08;79.03;102052.13;5013598;28;45370;-59
2021/12/13 05:56:08;;;;;;;;;17.00;14.20;;;;;10.05;79.36;102049.75;4996925;28;45371;-53
2021/12/13 05:58:41;;;;;;;;;20.60;13.60;;;;;10.06;79.18;102050.59;4996326;28;45424;-53
2021/12/13 06:01:28;;;;;;;;;15.00;13.60;;;;;9.88;79.29;102021.53;4997291;28;46178;-59
2021/12/13 06:04:06;;;;;;;;;17.00;13.20;;;;;9.80;78.72;102007.81;4996458;28;45488;-56
2021/12/13 06:06:31;;;;;;;;;18.40;15.20;;;;;9.89;78.97;102020.50;4980175;28;45553;-56
2021/12/13 06:08:57;;;;;;;;;9.50;9.50;;;;;9.80;79.09;102008.69;4996716;28;47119;-54
2021/12/13 06:11:32;;;;;;;;;19.00;14.50;;;;;10.06;78.60;102051.47;4980030;28;45972;-55
2021/12/13 06:14:19;;;;;;;;;14.60;12.20;;;;;10.03;78.70;102052.66;4997751;28;45173;-57
2021/12/13 06:16:48;;;;;;;;;13.40;11.60;;;;;10.02;78.01;102044.59;4996209;28;45476;-51
2021/12/13 06:19:22;;;;;;;;;13.80;13.80;;;;;9.82;78.33;102017.56;4998196;28;45593;-53
2021/12/13 06:22:02;;;;;;;;;16.40;16.20;;;;;10.03;77.90;102051.78;4997284;28;46142;-56
2021/12/13 06:24:35;;;;;;;;;14.60;11.60;;;;;9.99;78.21;102048.56;4997717;28;45356;-57
2021/12/13 06:27:21;;;;;;;;;18.80;17.00;;;;;10.02;78.38;102052.84;4980498;28;45365;-54
2021/12/13 06:30:02;;;;;;;;;14.00;13.40;;;;;9.66;78.97;101995.69;4982895;28;45478;-55
2021/12/13 06:32:34;;;;;;;;;12.20;8.80;;;;;9.96;78.29;102057.16;4997204;28;45896;-50
2021/12/13 06:35:00;;;;;;;;;17.40;16.00;;;;;9.97;77.79;102055.28;4997183;28;45466;-55
2021/12/13 06:37:35;;;;;;;;;12.20;11.20;;;;;9.95;78.53;102051.81;4979653;28;45428;-59
2021/12/13 06:40:33;;;;;;;;;13.60;13.40;;;;;9.97;78.38;102061.59;4997507;28;45789;-57
2021/12/13 06:42:59;;;;;;;;;14.00;12.80;;;;;10.00;78.92;102064.00;4962799;28;46373;-56
2021/12/13 06:45:33;;;;;;;;;13.40;12.00;;;;;9.98;78.95;102055.06;4997047;28;45281;-55
2021/12/13 06:48:00;;;;;;;;;13.80;12.80;;;;;10.01;77.94;102062.97;4997063;28;45330;-53
2021/12/13 06:50:29;;;;;;;;;13.20;13.00;;;;;9.97;77.81;102064.34;4979434;28;45329;-55
2021/12/13 06:53:27;;;;;;;;;15.80;14.20;;;;;9.97;78.99;102060.75;4979267;28;45726;-58
2021/12/13 06:55:53;;;;;;;;;14.40;13.80;;;;;10.02;78.33;102061.06;4962992;28;45498;-58
2021/12/13 06:58:24;;;;;;;;;17.50;13.50;;;;;10.03;77.55;102071.00;4979297;28;45391;-54
2021/12/13 07:00:52;;;;;;;;;18.40;13.20;;;;;10.02;78.40;102067.41;4979449;28;45407;-54
2021/12/13 07:03:21;;;;;;;;;15.40;12.20;;;;;10.01;78.23;102060.22;4979218;28;46857;-57
2021/12/13 07:05:52;;;;;;;;;13.60;12.40;;;;;10.00;77.98;102065.88;4996962;28;45268;-60
2021/12/13 07:08:22;;;;;;;;;15.40;11.20;;;;;10.02;78.51;102061.94;4979935;28;45533;-53
2021/12/13 07:10:55;;;;;;;;;14.80;12.60;;;;;10.01;77.71;102053.88;4996919;28;45297;-57
2021/12/13 07:13:38;;;;;;;;;8.80;8.80;;;;;9.97;78.41;102055.28;4996381;28;46310;-54
2021/12/13 07:16:07;;;;;;;;;12.60;11.40;;;;;9.97;77.75;102060.75;4980114;28;45332;-57
2021/12/13 07:18:49;;;;;;;;;3.20;1.00;;;;;9.77;78.16;102037.31;4996897;28;45452;-58
2021/12/13 07:21:22;;;;;;;;;6.40;6.40;;;;;9.88;78.10;102047.03;4996748;28;45280;-61
2021/12/13 07:24:14;;;;;;;;;7.40;6.40;;;;;9.94;78.31;102055.59;4996375;28;46238;-58
2021/12/13 07:26:49;;;;;;;;;7.60;6.60;;;;;9.81;77.64;102037.81;4996670;28;45323;-57
2021/12/13 07:29:24;;;;;;;;;6.00;4.40;;;;;9.95;77.92;102060.94;4978664;28;45857;-56
2021/12/13 07:32:15;;;;;;;;;8.00;6.60;;;;;9.97;78.16;102055.28;4996640;28;45367;-59
2021/12/13 07:34:50;;;;;;;;;5.60;5.60;;;;;9.97;77.46;102063.50;4979047;28;46577;-57
2021/12/13 07:37:16;;;;;;;;;7.00;5.20;;;;;10.00;77.54;102057.66;4978449;28;45413;-58
2021/12/13 07:39:43;;;;;;;;;6.00;3.00;;;;;9.99;77.62;102062.25;4995153;28;45373;-57
2021/12/13 07:42:10;;;;;;;;;6.60;4.40;;;;;9.99;76.99;102062.25;4996466;28;45420;-54
2021/12/13 07:44:43;;;;;;;;;5.20;5.20;;;;;9.98;77.32;102081.66;4994467;28;46988;-52
2021/12/13 07:47:17;;;;;;;;;7.00;4.80;;;;;9.74;77.29;102037.66;4978281;28;45835;-57
2021/12/13 07:49:46;;;;;;;;;4.40;4.40;;;;;10.00;77.29;102069.50;4995974;28;45842;-50
2021/12/13 07:52:41;;;;;;;;;5.20;3.00;;;;;9.97;78.04;102069.81;4978700;28;45482;-53
2021/12/13 07:55:19;;;;;;;;;2.60;2.60;;;;;9.94;77.39;102070.19;4977837;28;46126;-57
2021/12/13 07:57:45;;;;;;;;;7.80;6.80;;;;;9.98;77.53;102066.03;4997804;28;45451;-56
2021/12/13 08:00:21;;;;;;;;;7.00;6.00;;;;;9.96;77.65;102059.88;4986784;28;45378;-56
2021/12/13 08:02:54;;;;;;;;;6.20;6.20;;;;;9.96;76.87;102053.53;4999576;28;45404;-59
2021/12/13 08:05:24;;;;;;;;;14.40;9.00;;;;;9.54;77.15;101989.75;4997845;28;45417;-56
2021/12/13 08:07:53;;;;;;;;;8.60;7.80;;;;;9.99;76.79;102073.25;5015343;28;45483;-57
2021/12/13 08:10:28;;;;;;;;;9.40;7.00;;;;;9.98;77.30;102067.94;4998204;28;45436;-57
2021/12/13 08:13:09;;;;;;;;;13.20;10.60;;;;;9.79;77.21;102033.53;5015837;28;45311;-55
2021/12/13 08:15:36;;;;;;;;;11.20;8.20;;;;;9.99;77.12;102066.91;5015058;28;45427;-56
2021/12/13 08:18:07;;;;;;;;;12.80;9.60;;;;;10.03;77.79;102071.00;5014963;28;45485;-55
2021/12/13 08:20:36;;;;;;;;;14.00;12.20;;;;;10.01;76.68;102070.31;5015356;28;45390;-59
2021/12/13 08:23:02;;;;;;;;;12.60;10.80;;;;;9.67;77.61;102009.25;4997893;28;45491;-50
2021/12/13 08:25:38;;;;;;;;;15.75;9.00;;;;;10.13;77.57;102068.91;4997374;28;48409;-58
2021/12/13 08:28:08;;;;;;;;;14.00;13.40;;;;;10.15;76.77;102069.59;5014047;28;45899;-59
2021/12/13 08:30:52;;;;;;;;;11.00;10.80;;;;;10.16;77.04;102074.03;5015378;28;45362;-52
2021/12/13 08:33:20;;;;;;;;;13.60;13.00;;;;;10.17;76.37;102078.53;5015694;28;45515;-54
2021/12/13 08:35:49;;;;;;;;;18.00;9.20;;;;;10.11;77.36;102079.22;4997485;28;46560;-58
2021/12/13 08:38:40;;;;;;;;;19.00;17.00;;;;;10.03;77.05;102071.00;4997202;28;45446;-54
2021/12/13 08:41:34;;;;;;;;;12.80;12.80;;;;;10.15;76.89;102087.97;5015099;28;45394;-51
2021/12/13 08:44:11;;;;;;;;;12.60;8.80;;;;;10.15;76.55;102077.81;5014971;28;45394;-55
2021/12/13 08:46:56;;;;;;;;;8.60;8.20;;;;;10.16;76.49;102081.44;5014721;28;46721;-51
2021/12/13 08:49:27;;;;;;;;;10.00;8.80;;;;;10.18;76.79;102093.06;5014526;28;45537;-51
2021/12/13 08:52:07;;;;;;;;;10.00;9.40;;;;;10.19;77.56;102088.47;5014772;28;45338;-55
2021/12/13 08:54:51;;;;;;;;;11.40;9.20;;;;;10.15;76.32;102066.00;4994095;28;45889;-56
2021/12/13 08:57:34;;;;;;;;;7.60;7.60;;;;;10.23;76.69;102082.44;4994965;28;46109;-55
2021/12/13 09:00:06;;;;;;;;;6.80;6.00;;;;;10.22;76.29;102082.59;4978771;28;45357;-56
2021/12/13 09:02:36;;;;;;;;;7.20;7.20;;;;;10.14;77.11;102065.13;5015047;28;45353;-49
2021/12/13 09:05:13;;;;;;;;;7.40;7.40;;;;;10.19;76.91;102082.97;4997334;28;45457;-54
2021/12/13 09:07:56;;;;;;;;;10.00;7.00;;;;;10.16;77.04;102092.41;4981609;28;45606;-51
2021/12/13 09:10:24;;;;;;;;;7.00;7.00;;;;;10.19;76.51;102091.22;5014567;28;45757;-55
2021/12/13 09:12:57;;;;;;;;;7.80;7.00;;;;;10.10;76.66;102095.84;5014622;28;45320;-53
2021/12/13 09:15:26;;;;;;;;;4.00;4.00;;;;;10.10;75.92;102090.38;4997393;28;45387;-53
2021/12/13 09:17:52;;;;;;;;;6.60;4.40;;;;;10.15;75.77;102087.97;4996805;28;45409;-51
2021/12/13 09:20:21;;;;;;;;;6.00;6.00;;;;;10.17;75.09;102095.00;4996668;28;45811;-53
2021/12/13 09:22:55;;;;;;;;;3.80;3.80;;;;;9.95;75.31;102068.28;4974869;28;48014;-56
2021/12/13 09:25:39;;;;;;;;;3.60;3.60;;;;;10.06;75.53;102094.47;4999204;28;46587;-55
2021/12/13 09:28:13;;;;;;;;;3.00;2.00;;;;;10.03;74.74;102104.78;4973961;28;45545;-57
2021/12/13 09:30:49;;;;;;;;;1.80;1.80;;;;;10.01;74.43;102112.34;4985627;28;46177;-57
2021/12/13 09:33:20;;;;;;;;;2.60;2.40;;;;;10.03;75.41;102112.13;5013852;28;45851;-59
2021/12/13 09:35:53;;;;;;;;;1.40;1.40;;;;;10.09;74.46;102114.19;5014112;28;45782;-52
2021/12/13 09:38:23;;;;;;;;;1.00;1.00;;;;;9.83;74.38;102073.28;5012761;28;46357;-61
2021/12/13 09:40:58;;;;;;;;;2.80;2.80;;;;;9.81;74.07;102075.38;4996042;28;45463;-54
2021/12/13 09:43:43;;;;;;;;;3.40;3.40;;;;;9.90;74.84;102086.13;4995765;28;46021;-56
2021/12/13 09:46:10;;;;;;;;;3.40;3.40;;;;;10.05;74.89;102115.59;4995382;28;45423;-57
2021/12/13 09:48:42;;;;;;;;;4.00;2.00;;;;;10.01;74.15;102114.22;5013720;28;46149;-57
2021/12/13 09:51:13;;;;;;;;;2.00;2.00;;;;;9.90;74.55;102098.97;5012197;28;45847;-53
2021/12/13 09:53:38;;;;;;;;;2.00;2.00;;;;;9.95;74.57;102098.44;5013758;28;45739;-53
2021/12/13 09:56:13;;;;;;;;;3.00;3.00;;;;;9.89;74.66;102100.84;5013854;28;45397;-57
2021/12/13 09:58:51;;;;;;;;;2.00;2.00;;;;;9.68;74.74;102060.28;4995745;28;45443;-60
2021/12/13 10:01:27;;;;;;;;;2.40;2.40;;;;;9.98;74.29;102109.09;4995226;28;46298;-58
2021/12/13 10:04:09;;;;;;;;;2.00;2.00;;;;;10.04;74.12;102111.13;4994575;28;45573;-53
2021/12/13 10:06:45;;;;;;;;;5.80;3.60;;;;;9.86;73.92;102081.16;4996319;28;45798;-53
2021/12/13 10:09:25;;;;;;;;;3.60;3.20;;;;;10.06;73.70;102122.78;4978960;28;46361;-54
2021/12/13 10:12:09;;;;;;;;;5.60;3.00;;;;;10.07;73.24;102119.00;5013412;28;45882;-56
2021/12/13 10:14:40;;;;;;;;;3.20;3.20;;;;;9.87;72.60;102077.41;4995716;28;45544;-58
2021/12/13 10:17:07;;;;;;;;;4.80;3.00;;;;;10.09;72.95;102110.59;4995374;28;45506;-55
2021/12/13 10:19:41;;;;;;;;;3.60;2.60;;;;;10.08;72.91;102117.13;5013374;28;46053;-53
2021/12/13 10:22:07;;;;;;;;;3.00;3.00;;;;;10.07;72.49;102093.44;4995542;28;45472;-53
2021/12/13 10:24:41;;;;;;;;;3.80;3.80;;;;;10.09;72.53;102100.47;4996829;28;45492;-54
2021/12/13 10:27:08;;;;;;;;;4.00;4.00;;;;;9.92;72.80;102063.16;4994516;28;46274;-58
2021/12/13 10:29:34;;;;;;;;;4.00;4.00;;;;;10.07;73.43;102099.81;4995149;28;47171;-54
2021/12/13 10:32:08;;;;;;;;;6.25;4.75;;;;;10.06;72.42;102091.75;4995521;28;45461;-59
2021/12/13 10:34:35;;;;;;;;;3.60;3.60;;;;;9.93;72.78;102065.72;4996320;28;45436;-57
2021/12/13 10:37:09;;;;;;;;;6.40;4.00;;;;;10.10;72.87;102093.13;4995666;28;45594;-54
2021/12/13 10:39:38;;;;;;;;;3.00;3.00;;;;;10.10;72.77;102091.25;5006333;28;46813;-57
2021/12/13 10:42:09;;;;;;;;;1.60;1.60;;;;;10.04;72.75;102090.03;5006977;28;45504;-50
2021/12/13 10:44:35;;;;;;;;;3.60;3.60;;;;;10.06;72.22;102095.34;5012269;28;45442;-61
2021/12/13 10:47:05;;;;;;;;;4.00;2.25;;;;;9.94;72.58;102088.50;5012651;28;45816;-60
2021/12/13 10:49:32;;;;;;;;;3.20;3.00;;;;;9.98;71.83;102096.22;5011207;28;46602;-56
2021/12/13 10:52:07;;;;;;;;;2.00;2.00;;;;;10.02;72.24;102093.97;5011214;28;45705;-55
2021/12/13 10:54:43;;;;;;;;;2.20;2.20;;;;;10.06;71.62;102098.09;5011770;28;45402;-53
2021/12/13 10:57:14;;;;;;;;;3.60;2.00;;;;;10.08;71.74;102089.69;5012488;28;45466;-54
2021/12/13 10:59:40;;;;;;;;;2.00;2.00;;;;;9.92;72.16;102057.69;4959246;28;46015;-55
2021/12/13 11:02:18;;;;;;;;;2.00;2.00;;;;;9.99;71.82;102078.72;5011663;28;45496;-55
2021/12/13 11:04:47;;;;;;;;;2.00;2.00;;;;;9.59;70.78;102011.97;5009257;28;45742;-52
2021/12/13 11:07:13;;;;;;;;;1.60;1.60;;;;;10.00;72.02;102080.47;4994069;28;45476;-51
2021/12/13 11:09:41;;;;;;;;;6.00;2.00;;;;;9.87;71.77;102059.03;4989976;28;45834;-51
2021/12/13 11:12:30;;;;;;;;;2.40;2.40;;;;;10.08;72.37;102098.75;4990203;28;45691;-51
2021/12/13 11:14:59;;;;;;;;;2.60;0.40;;;;;10.03;70.88;102092.94;4975314;28;45571;-55
2021/12/13 11:17:26;;;;;;;;;1.00;1.00;;;;;9.88;71.17;102088.19;5012553;28;45400;-55
2021/12/13 11:19:58;;;;;;;;;2.60;2.00;;;;;9.86;70.86;102092.13;5010589;28;46313;-52
2021/12/13 11:22:26;;;;;;;;;1.00;1.00;;;;;9.66;71.71;102075.19;5012077;28;45493;-55
2021/12/13 11:24:54;;;;;;;;;2.80;2.80;;;;;9.82;71.40;102093.53;4984305;28;45726;-56
2021/12/13 11:27:24;;;;;;;;;2.80;2.00;;;;;9.73;71.66;102076.22;5010408;28;45672;-56
2021/12/13 11:29:52;;;;;;;;;2.80;2.80;;;;;9.84;71.07;102091.44;5011783;28;46872;-56
2021/12/13 11:32:39;;;;;;;;;3.20;2.20;;;;;9.82;72.31;102094.34;4991411;28;46058;-59
2021/12/13 11:35:07;;;;;;;;;3.00;3.00;;;;;9.74;71.88;102102.59;5015005;28;45527;-57
2021/12/13 11:38:06;;;;;;;;;5.20;5.20;;;;;9.67;72.13;102093.34;4996755;28;45462;-58
2021/12/13 11:40:34;;;;;;;;;6.80;3.00;;;;;9.72;71.79;102093.69;5015899;28;46107;-57
2021/12/13 11:43:26;;;;;;;;;2.80;2.80;;;;;9.72;72.49;102089.06;4997808;28;46001;-56
2021/12/13 11:45:58;;;;;;;;;3.20;3.00;;;;;9.74;72.43;102077.94;5013958;28;45300;-57
2021/12/13 11:49:01;;;;;;;;;3.80;3.80;;;;;9.73;72.09;102079.78;4998297;28;45431;-60
2021/12/13 11:51:58;;;;;;;;;6.60;5.40;;;;;9.63;71.82;102057.22;5014311;28;45499;-55